createdAt,value
2018-04-22T00:01:13.252Z,6.93
2018-04-22T00:03:40.771Z,6.07
2018-04-22T00:06:08.282Z,5.80
2018-04-22T00:08:36.381Z,6.40
2018-04-22T00:11:04.666Z,5.77
2018-04-22T00:13:33.086Z,5.87
2018-04-22T00:16:00.637Z,5.90
2018-04-22T00:18:28.159Z,5.90
2018-04-22T00:20:56.469Z,5.37
2018-04-22T00:23:24.040Z,6.17
2018-04-22T00:25:51.553Z,5.60
2018-04-22T00:28:19.822Z,6.40
2018-04-22T00:30:47.367Z,5.40
2018-04-22T00:33:14.895Z,6.20
2018-04-22T00:35:42.436Z,6.70
2018-04-22T00:38:09.995Z,5.33
2018-04-22T00:40:37.517Z,6.60
2018-04-22T00:43:05.797Z,5.90
2018-04-22T00:45:34.117Z,6.40
2018-04-22T00:48:01.641Z,6.97
2018-04-22T00:50:29.152Z,6.33
2018-04-22T00:52:56.690Z,6.80
2018-04-22T00:55:24.230Z,5.90
2018-04-22T00:57:51.743Z,6.77
2018-04-22T01:00:19.298Z,5.70
2018-04-22T01:02:46.934Z,6.77
2018-04-22T01:05:14.442Z,7.13
2018-04-22T01:07:42.865Z,6.80
2018-04-22T01:10:10.407Z,5.93
2018-04-22T01:12:37.951Z,6.37
2018-04-22T01:15:05.538Z,6.83
2018-04-22T01:17:33.061Z,6.00
2018-04-22T01:20:01.653Z,6.37
2018-04-22T01:22:29.209Z,6.00
2018-04-22T01:24:56.734Z,6.80
2018-04-22T01:27:24.259Z,6.70
2018-04-22T01:29:51.811Z,7.07
2018-04-22T01:32:19.320Z,6.47
2018-04-22T01:34:46.832Z,6.80
2018-04-22T01:37:14.857Z,7.00
2018-04-22T01:39:43.184Z,6.87
2018-04-22T01:42:10.730Z,6.77
2018-04-22T01:44:38.293Z,7.10
2018-04-22T01:47:05.856Z,6.90
2018-04-22T01:49:33.374Z,6.80
2018-04-22T01:52:01.679Z,7.60
2018-04-22T01:54:29.236Z,7.13
2018-04-22T01:56:56.807Z,6.50
2018-04-22T01:59:24.360Z,7.40
2018-04-22T02:01:51.928Z,7.00
2018-04-22T02:04:19.450Z,6.90
2018-04-22T02:06:47.021Z,7.50
2018-04-22T02:09:14.539Z,7.20
2018-04-22T02:14:16.372Z,7.50
2018-04-22T02:16:43.931Z,6.67
2018-04-22T02:19:11.509Z,7.10
2018-04-22T02:21:39.030Z,7.20
2018-04-22T02:24:06.554Z,7.70
2018-04-22T02:26:34.888Z,7.17
2018-04-22T02:29:02.432Z,8.07
2018-04-22T02:31:29.945Z,6.83
2018-04-22T02:33:57.556Z,7.33
2018-04-22T02:36:25.061Z,7.27
2018-04-22T02:38:53.358Z,6.73
2018-04-22T02:41:20.925Z,6.47
2018-04-22T02:43:48.994Z,6.97
2018-04-22T02:46:16.518Z,7.07
2018-04-22T02:48:45.580Z,7.30
2018-04-22T02:51:13.098Z,7.63
2018-04-22T02:53:40.613Z,7.33
2018-04-22T02:56:08.187Z,7.17
2018-04-22T02:58:35.700Z,6.90
2018-04-22T03:01:03.230Z,7.77
2018-04-22T03:03:30.780Z,7.33
2018-04-22T03:05:59.083Z,6.90
2018-04-22T03:08:26.653Z,8.20
2018-04-22T03:10:54.235Z,7.80
2018-04-22T03:13:21.762Z,7.07
2018-04-22T03:15:49.269Z,7.37
2018-04-22T03:18:16.831Z,7.43
2018-04-22T03:20:44.357Z,7.40
2018-04-22T03:23:11.896Z,7.30
2018-04-22T03:25:39.440Z,7.60
2018-04-22T03:28:06.973Z,6.50
2018-04-22T03:30:35.252Z,6.73
2018-04-22T03:33:03.572Z,7.57
2018-04-22T03:35:31.105Z,7.00
2018-04-22T03:37:58.627Z,6.70
2018-04-22T03:40:26.198Z,6.50
2018-04-22T03:42:54.528Z,7.23
2018-04-22T03:45:22.046Z,7.80
2018-04-22T03:47:50.379Z,7.50
2018-04-22T03:50:17.919Z,6.23
2018-04-22T03:52:45.440Z,6.80
2018-04-22T03:55:13.751Z,6.70
2018-04-22T03:57:41.299Z,6.67
2018-04-22T04:00:08.804Z,7.10
2018-04-22T04:02:37.874Z,7.00
2018-04-22T04:05:05.399Z,7.40
2018-04-22T04:07:32.908Z,6.97
2018-04-22T04:10:00.475Z,6.83
2018-04-22T04:12:28.087Z,6.93
2018-04-22T04:14:55.614Z,7.37
2018-04-22T04:17:24.004Z,7.50
2018-04-22T04:20:03.408Z,7.27
2018-04-22T04:22:49.259Z,6.93
2018-04-22T04:25:39.244Z,7.30
2018-04-22T04:28:06.786Z,6.30
2018-04-22T04:30:34.311Z,7.80
2018-04-22T04:33:02.605Z,7.47
2018-04-22T04:35:30.191Z,7.20
2018-04-22T04:37:57.713Z,6.50
2018-04-22T04:40:26.015Z,7.37
2018-04-22T04:42:53.564Z,6.20
2018-04-22T04:45:21.082Z,6.40
2018-04-22T04:47:48.604Z,7.03
2018-04-22T04:50:16.163Z,7.17
2018-04-22T04:52:43.684Z,6.13
2018-04-22T04:55:11.975Z,7.10
2018-04-22T04:57:39.558Z,6.80
2018-04-22T05:00:07.083Z,7.50
2018-04-22T05:02:34.610Z,6.80
2018-04-22T05:05:02.180Z,7.20
2018-04-22T05:07:30.455Z,7.10
2018-04-22T05:09:58.728Z,6.70
2018-04-22T05:12:26.277Z,6.53
2018-04-22T05:14:53.786Z,7.33
2018-04-22T05:17:21.302Z,6.67
2018-04-22T05:19:49.629Z,6.83
2018-04-22T05:22:17.135Z,6.73
2018-04-22T05:24:45.426Z,7.53
2018-04-22T05:27:13.735Z,6.70
2018-04-22T05:29:41.251Z,6.50
2018-04-22T05:32:09.541Z,7.10
2018-04-22T05:34:37.865Z,6.17
2018-04-22T05:37:05.399Z,6.27
2018-04-22T05:39:32.954Z,6.37
2018-04-22T05:42:00.579Z,6.83
2018-04-22T05:44:28.876Z,6.90
2018-04-22T05:46:56.416Z,6.70
2018-04-22T05:49:24.756Z,6.37
2018-04-22T05:51:52.314Z,6.30
2018-04-22T05:54:19.816Z,6.67
2018-04-22T05:56:48.223Z,6.30
2018-04-22T05:59:15.751Z,6.70
2018-04-22T06:01:44.034Z,6.60
2018-04-22T06:04:12.345Z,6.43
2018-04-22T06:06:39.865Z,6.43
2018-04-22T06:09:08.201Z,6.67
2018-04-22T06:11:35.840Z,7.07
2018-04-22T06:14:03.380Z,7.13
2018-04-22T06:16:30.898Z,6.83
2018-04-22T06:18:59.261Z,6.63
2018-04-22T06:21:26.793Z,6.97
2018-04-22T06:23:54.311Z,6.27
2018-04-22T06:26:22.637Z,6.43
2018-04-22T06:28:50.154Z,6.93
2018-04-22T06:31:17.689Z,7.40
2018-04-22T06:33:46.015Z,7.10
2018-04-22T06:36:13.537Z,6.50
2018-04-22T06:38:41.817Z,7.03
2018-04-22T06:41:10.157Z,6.40
2018-04-22T06:43:37.685Z,7.13
2018-04-22T06:46:05.243Z,6.33
2018-04-22T06:48:32.804Z,6.73
2018-04-22T06:51:00.358Z,6.13
2018-04-22T06:53:27.878Z,6.87
2018-04-22T06:55:56.203Z,6.60
2018-04-22T06:58:23.718Z,6.50
2018-04-22T07:00:52.036Z,6.57
2018-04-22T07:03:19.599Z,7.37
2018-04-22T07:05:47.124Z,6.90
2018-04-22T07:08:14.645Z,7.50
2018-04-22T07:10:42.594Z,6.93
2018-04-22T07:13:10.115Z,6.87
2018-04-22T07:15:37.718Z,6.60
2018-04-22T07:18:05.264Z,6.60
2018-04-22T07:20:32.800Z,7.00
2018-04-22T07:23:00.317Z,7.57
2018-04-22T07:25:29.062Z,7.20
2018-04-22T07:27:56.590Z,7.83
2018-04-22T07:30:24.114Z,7.03
2018-04-22T07:32:51.685Z,6.97
2018-04-22T07:35:19.971Z,7.30
2018-04-22T07:37:48.246Z,7.27
2018-04-22T07:40:16.577Z,7.77
2018-04-22T07:42:44.110Z,8.30
2018-04-22T07:45:11.630Z,7.77
2018-04-22T07:47:39.945Z,7.97
2018-04-22T07:50:07.518Z,8.80
2018-04-22T07:52:35.075Z,8.87
2018-04-22T07:55:02.747Z,8.80
2018-04-22T07:57:30.279Z,7.13
2018-04-22T07:59:57.880Z,8.23
2018-04-22T08:02:25.419Z,8.73
2018-04-22T08:04:52.956Z,8.67
2018-04-22T08:07:20.480Z,9.50
2018-04-22T08:09:48.809Z,9.80
2018-04-22T08:12:16.346Z,10.13
2018-04-22T08:14:43.863Z,9.87
2018-04-22T08:17:12.196Z,10.33
2018-04-22T08:19:39.727Z,10.73
2018-04-22T08:22:07.302Z,10.93
2018-04-22T08:24:34.873Z,10.13
2018-04-22T08:27:02.420Z,9.23
2018-04-22T08:29:29.942Z,11.20
2018-04-22T08:31:58.269Z,11.50
2018-04-22T08:34:25.786Z,11.83
2018-04-22T08:36:53.370Z,10.20
2018-04-22T08:39:20.932Z,10.53
2018-04-22T08:41:48.446Z,11.30
2018-04-22T08:44:16.758Z,13.20
2018-04-22T08:46:44.342Z,11.00
2018-04-22T08:49:11.877Z,12.10
2018-04-22T08:51:39.437Z,11.87
2018-04-22T08:54:07.098Z,11.80
2018-04-22T08:56:34.646Z,13.33
2018-04-22T08:59:02.197Z,10.90
2018-04-22T09:01:29.789Z,13.43
2018-04-22T09:03:57.329Z,13.07
2018-04-22T09:06:24.920Z,13.10
2018-04-22T09:08:52.481Z,12.50
2018-04-22T09:11:19.998Z,13.63
2018-04-22T09:13:47.710Z,13.37
2018-04-22T09:16:15.260Z,14.47
2018-04-22T09:18:42.782Z,11.73
2018-04-22T09:21:10.309Z,13.20
2018-04-22T09:23:38.620Z,13.90
2018-04-22T09:26:06.206Z,13.90
2018-04-22T09:28:33.779Z,14.20
2018-04-22T09:31:01.619Z,13.97
2018-04-22T09:33:29.141Z,15.07
2018-04-22T09:35:56.705Z,14.33
2018-04-22T09:38:24.288Z,15.47
2018-04-22T09:40:51.807Z,14.73
2018-04-22T09:43:20.228Z,16.00
2018-04-22T09:45:47.754Z,16.43
2018-04-22T09:48:15.343Z,15.40
2018-04-22T09:50:42.912Z,15.03
2018-04-22T09:53:11.263Z,14.90
2018-04-22T09:55:38.835Z,16.47
2018-04-22T09:58:06.367Z,15.30
2018-04-22T10:00:34.645Z,16.80
2018-04-22T10:03:07.062Z,18.40
2018-04-22T10:05:40.349Z,16.87
2018-04-22T10:08:07.907Z,17.33
2018-04-22T10:10:35.447Z,17.93
2018-04-22T10:13:02.972Z,17.67
2018-04-22T10:15:31.330Z,17.60
2018-04-22T10:17:58.951Z,18.67
2018-04-22T10:20:26.503Z,18.90
2018-04-22T10:22:54.064Z,19.33
2018-04-22T10:25:21.599Z,17.50
2018-04-22T10:27:49.143Z,18.40
2018-04-22T10:30:17.472Z,18.97
2018-04-22T10:32:45.002Z,20.83
2018-04-22T10:35:12.525Z,19.13
2018-04-22T10:37:40.099Z,18.97
2018-04-22T10:40:08.450Z,20.40
2018-04-22T10:42:35.940Z,19.73
2018-04-22T10:45:04.264Z,20.77
2018-04-22T10:47:31.785Z,20.20
2018-04-22T10:49:59.328Z,20.97
2018-04-22T10:52:27.659Z,18.90
2018-04-22T10:54:55.174Z,19.40
2018-04-22T10:57:22.707Z,19.23
2018-04-22T10:59:51.066Z,20.77
2018-04-22T11:02:18.604Z,20.97
2018-04-22T11:04:46.130Z,22.97
2018-04-22T11:07:13.709Z,19.70
2018-04-22T11:09:41.235Z,22.20
2018-04-22T11:12:09.536Z,20.57
2018-04-22T11:14:37.080Z,19.23
2018-04-22T11:17:04.592Z,20.63
2018-04-22T11:19:32.154Z,22.10
2018-04-22T11:21:59.681Z,21.57
2018-04-22T11:24:27.239Z,21.23
2018-04-22T11:26:54.792Z,21.53
2018-04-22T11:29:22.313Z,20.80
2018-04-22T11:31:50.745Z,21.10
2018-04-22T11:34:18.281Z,21.13
2018-04-22T11:36:45.809Z,20.40
2018-04-22T11:39:14.109Z,18.13
2018-04-22T11:41:41.650Z,21.40
2018-04-22T11:44:09.964Z,20.93
2018-04-22T11:46:37.507Z,21.27
2018-04-22T11:49:05.183Z,22.10
2018-04-22T11:51:32.728Z,20.10
2018-04-22T11:54:00.257Z,19.80
2018-04-22T11:56:28.578Z,21.13
2018-04-22T11:58:56.133Z,18.97
2018-04-22T12:01:23.650Z,22.03
2018-04-22T12:03:52.064Z,21.90
2018-04-22T12:06:19.591Z,22.50
2018-04-22T12:08:47.909Z,21.27
2018-04-22T12:11:15.433Z,20.60
2018-04-22T12:13:43.012Z,20.10
2018-04-22T12:16:10.586Z,21.50
2018-04-22T12:18:38.106Z,20.67
2018-04-22T12:21:05.673Z,21.50
2018-04-22T12:23:33.208Z,19.90
2018-04-22T12:26:01.509Z,22.77
2018-04-22T12:28:29.091Z,18.47
2018-04-22T12:30:56.642Z,20.10
2018-04-22T12:33:24.195Z,18.13
2018-04-22T12:35:51.721Z,15.33
2018-04-22T12:38:20.026Z,18.43
2018-04-22T12:40:47.580Z,16.47
2018-04-22T12:43:15.105Z,17.30
2018-04-22T12:45:43.454Z,15.30
2018-04-22T12:48:11.091Z,15.33
2018-04-22T12:50:38.614Z,14.47
2018-04-22T12:53:07.039Z,15.43
2018-04-22T12:55:34.560Z,12.70
2018-04-22T12:58:02.111Z,12.50
2018-04-22T13:00:30.431Z,11.47
2018-04-22T13:02:57.956Z,11.13
2018-04-22T13:05:25.647Z,11.47
2018-04-22T13:07:53.179Z,9.70
2018-04-22T13:10:20.750Z,12.10
2018-04-22T13:12:48.285Z,11.20
2018-04-22T13:15:15.825Z,9.40
2018-04-22T13:17:44.246Z,10.63
2018-04-22T13:20:11.764Z,10.10
2018-04-22T13:22:40.096Z,11.97
2018-04-22T13:25:07.626Z,10.40
2018-04-22T13:27:35.142Z,9.30
2018-04-22T13:30:02.675Z,8.83
2018-04-22T13:32:30.200Z,8.90
2018-04-22T13:34:57.771Z,9.47
2018-04-22T13:37:25.310Z,6.33
2018-04-22T13:39:52.902Z,7.73
2018-04-22T13:42:20.455Z,7.47
2018-04-22T13:44:47.986Z,6.70
2018-04-22T13:47:15.543Z,6.33
2018-04-22T13:49:44.413Z,6.80
2018-04-22T13:52:12.707Z,6.60
2018-04-22T13:54:41.035Z,6.93
2018-04-22T13:57:08.635Z,7.40
2018-04-22T13:59:36.302Z,6.40
2018-04-22T14:02:04.590Z,6.73
2018-04-22T14:04:32.145Z,8.10
2018-04-22T14:06:59.676Z,5.90
2018-04-22T14:09:27.204Z,7.13
2018-04-22T14:11:54.773Z,6.83
2018-04-22T14:14:23.145Z,6.00
2018-04-22T14:16:50.683Z,6.30
2018-04-22T14:19:18.223Z,6.70
2018-04-22T14:21:45.737Z,7.20
2018-04-22T14:24:13.310Z,7.33
2018-04-22T14:26:41.590Z,7.70
2018-04-22T14:29:09.863Z,6.87
2018-04-22T14:31:38.174Z,6.10
2018-04-22T14:34:05.718Z,6.50
2018-04-22T14:36:33.263Z,6.03
2018-04-22T14:39:01.726Z,6.90
2018-04-22T14:41:30.015Z,6.90
2018-04-22T14:44:10.052Z,6.13
2018-04-22T14:46:37.579Z,6.17
2018-04-22T14:49:05.841Z,6.47
2018-04-22T14:51:33.368Z,6.00
2018-04-22T14:54:00.939Z,6.10
2018-04-22T14:56:28.461Z,5.80
2018-04-22T14:58:55.991Z,6.70
2018-04-22T15:01:23.566Z,5.93
2018-04-22T15:03:51.101Z,5.80
2018-04-22T15:06:18.651Z,6.33
2018-04-22T15:08:46.203Z,6.77
2018-04-22T15:11:13.771Z,6.50
2018-04-22T15:13:41.293Z,5.80
2018-04-22T15:16:09.719Z,6.03
2018-04-22T15:18:37.283Z,7.13
2018-04-22T15:21:04.816Z,6.70
2018-04-22T15:23:32.377Z,6.33
2018-04-22T15:25:59.906Z,6.00
2018-04-22T15:28:28.223Z,6.53
2018-04-22T15:30:55.769Z,6.07
2018-04-22T15:33:23.297Z,6.23
2018-04-22T15:35:51.705Z,5.67
2018-04-22T15:38:19.276Z,4.80
2018-04-22T15:40:46.791Z,5.10
2018-04-22T15:43:15.092Z,5.30
2018-04-22T15:45:42.655Z,5.20
2018-04-22T15:48:10.228Z,4.70
2018-04-22T15:50:37.765Z,5.37
2018-04-22T15:53:05.438Z,4.73
2018-04-22T15:55:32.992Z,4.63
2018-04-22T15:58:00.565Z,4.10
2018-04-22T16:00:28.216Z,4.50
2018-04-22T16:02:55.751Z,4.43
2018-04-22T16:05:23.279Z,4.87
2018-04-22T16:07:52.359Z,4.57
2018-04-22T16:10:19.903Z,5.23
2018-04-22T16:12:47.422Z,5.47
2018-04-22T16:15:15.011Z,6.27
2018-04-22T16:17:43.293Z,5.80
2018-04-22T16:20:10.901Z,5.80
2018-04-22T16:22:38.432Z,6.00
2018-04-22T16:25:06.057Z,6.37
2018-04-22T16:27:33.628Z,6.40
2018-04-22T16:30:01.191Z,6.13
2018-04-22T16:32:28.719Z,6.00
2018-04-22T16:34:56.225Z,6.00
2018-04-22T16:37:23.757Z,6.13
2018-04-22T16:39:51.315Z,5.80
2018-04-22T16:42:18.880Z,6.20
2018-04-22T16:44:46.411Z,6.60
2018-04-22T16:47:13.925Z,5.97
2018-04-22T16:49:41.552Z,6.00
2018-04-22T16:52:09.082Z,6.20
2018-04-22T16:54:36.651Z,6.00
2018-04-22T16:57:04.170Z,5.67
2018-04-22T16:59:31.699Z,5.03
2018-04-22T17:01:59.341Z,5.97
2018-04-22T17:04:26.873Z,5.63
2018-04-22T17:06:54.432Z,5.37
2018-04-22T17:09:21.943Z,5.97
2018-04-22T17:11:49.466Z,5.50
2018-04-22T17:14:16.998Z,6.60
2018-04-22T17:16:45.321Z,6.47
2018-04-22T17:19:12.905Z,6.53
2018-04-22T17:21:40.428Z,6.50
2018-04-22T17:24:08.016Z,6.47
2018-04-22T17:26:35.882Z,6.30
2018-04-22T17:29:03.396Z,6.17
2018-04-22T17:31:30.935Z,5.80
2018-04-22T17:33:58.524Z,7.80
2018-04-22T17:36:26.075Z,7.97
2018-04-22T17:38:53.656Z,8.20
2018-04-22T17:41:21.193Z,8.33
2018-04-22T17:43:49.327Z,10.68
2018-04-22T17:46:17.659Z,10.30
2018-04-22T17:48:45.177Z,8.03
2018-04-22T17:51:13.479Z,9.40
2018-04-22T17:53:41.030Z,9.60
2018-04-22T17:56:08.550Z,8.73
2018-04-22T17:58:36.888Z,10.53
2018-04-22T18:01:04.418Z,11.63
2018-04-22T18:03:31.967Z,11.37
2018-04-22T18:05:59.501Z,11.13
2018-04-22T18:08:27.048Z,11.90
2018-04-22T18:10:56.118Z,13.67
2018-04-22T18:13:23.700Z,12.50
2018-04-22T18:15:51.320Z,11.33
2018-04-22T18:18:18.863Z,12.93
2018-04-22T18:20:46.389Z,13.13
2018-04-22T18:23:14.728Z,12.60
2018-04-22T18:25:42.278Z,13.40
2018-04-22T18:28:09.808Z,14.77
2018-04-22T18:30:37.397Z,14.40
2018-04-22T18:33:04.948Z,14.87
2018-04-22T18:35:32.611Z,16.20
2018-04-22T18:38:00.164Z,14.93
2018-04-22T18:40:27.698Z,13.53
2018-04-22T18:42:55.283Z,15.37
2018-04-22T18:45:22.862Z,16.07
2018-04-22T18:47:50.428Z,16.90
2018-04-22T18:50:17.946Z,20.20
2018-04-22T18:52:45.517Z,12.90
2018-04-22T18:55:13.061Z,13.20
2018-04-22T18:57:40.603Z,12.93
2018-04-22T19:00:08.935Z,14.17
2018-04-22T19:02:36.461Z,13.03
2018-04-22T19:05:03.992Z,10.90
2018-04-22T19:07:32.329Z,11.97
2018-04-22T19:09:59.864Z,11.60
2018-04-22T19:12:27.390Z,11.53
2018-04-22T19:14:55.812Z,11.30
2018-04-22T19:17:23.383Z,11.20
2018-04-22T19:19:50.952Z,12.70
2018-04-22T19:22:18.516Z,13.00
2018-04-22T19:24:46.863Z,13.20
2018-04-22T19:27:14.390Z,14.03
2018-04-22T19:29:41.957Z,15.07
2018-04-22T19:32:09.485Z,13.43
2018-04-22T19:34:37.130Z,13.70
2018-04-22T19:37:04.687Z,16.10
2018-04-22T19:39:32.221Z,17.60
2018-04-22T19:41:59.739Z,17.43
2018-04-22T19:44:28.052Z,15.70
2018-04-22T19:46:55.589Z,15.60
2018-04-22T19:49:23.141Z,16.33
2018-04-22T19:51:50.714Z,15.13
2018-04-22T19:54:18.254Z,17.03
2018-04-22T19:56:45.774Z,16.20
2018-04-22T19:59:13.325Z,16.83
2018-04-22T20:01:40.865Z,15.30
2018-04-22T20:04:08.411Z,17.60
2018-04-22T20:06:37.349Z,16.70
2018-04-22T20:09:05.591Z,17.07
2018-04-22T20:11:33.121Z,17.73
2018-04-22T20:14:00.791Z,18.13
2018-04-22T20:16:28.310Z,17.77
2018-04-22T20:18:56.625Z,19.43
2018-04-22T20:21:24.198Z,19.07
2018-04-22T20:23:51.765Z,20.33
2018-04-22T20:26:19.320Z,20.10
2018-04-22T20:28:46.880Z,20.80
2018-04-22T20:31:14.435Z,22.37
2018-04-22T20:33:41.990Z,24.20
2018-04-22T20:36:09.548Z,21.67
2018-04-22T20:38:37.310Z,22.17
2018-04-22T20:41:04.852Z,23.70
2018-04-22T20:43:32.432Z,24.80
2018-04-22T20:45:59.954Z,25.60
2018-04-22T20:48:28.248Z,24.33
2018-04-22T20:50:55.810Z,26.50
2018-04-22T20:53:23.396Z,25.80
2018-04-22T20:55:50.920Z,26.33
2018-04-22T20:58:18.486Z,26.97
2018-04-22T21:00:46.006Z,29.20
2018-04-22T21:03:14.309Z,28.57
2018-04-22T21:05:41.869Z,28.20
2018-04-22T21:08:09.392Z,25.20
2018-04-22T21:10:36.926Z,25.70
2018-04-22T21:13:04.572Z,25.57
2018-04-22T21:15:32.101Z,27.10
2018-04-22T21:17:59.680Z,28.80
2018-04-22T21:20:27.239Z,28.83
2018-04-22T21:22:54.798Z,28.67
2018-04-22T21:25:22.350Z,29.40
2018-04-22T21:27:49.892Z,30.90
2018-04-22T21:30:17.409Z,30.00
2018-04-22T21:32:44.948Z,28.87
2018-04-22T21:35:12.592Z,30.40
2018-04-22T21:37:40.104Z,28.73
2018-04-22T21:40:08.384Z,29.20
2018-04-22T21:42:36.702Z,29.50
2018-04-22T21:45:04.234Z,29.17
2018-04-22T21:47:31.764Z,31.83
2018-04-22T21:49:59.309Z,32.40
2018-04-22T21:52:26.833Z,32.60
2018-04-22T21:54:54.348Z,31.93
2018-04-22T21:57:22.682Z,33.00
2018-04-22T21:59:50.197Z,33.23
2018-04-22T22:02:17.716Z,31.87
2018-04-22T22:04:45.284Z,30.80
2018-04-22T22:07:12.908Z,32.07
2018-04-22T22:09:40.454Z,31.50
2018-04-22T22:12:08.028Z,31.27
2018-04-22T22:14:35.607Z,31.73
2018-04-22T22:17:03.131Z,31.13
2018-04-22T22:19:30.703Z,29.97
2018-04-22T22:21:58.240Z,31.03
2018-04-22T22:24:25.825Z,31.87
2018-04-22T22:26:53.396Z,33.07
2018-04-22T22:29:20.913Z,34.20
2018-04-22T22:31:48.452Z,32.10
2018-04-22T22:34:16.855Z,31.83
2018-04-22T22:36:44.369Z,31.00
2018-04-22T22:39:11.980Z,31.70
2018-04-22T22:41:39.642Z,32.30
2018-04-22T22:44:07.177Z,34.10
2018-04-22T22:46:34.713Z,34.67
2018-04-22T22:49:03.048Z,34.37
2018-04-22T22:51:30.595Z,33.83
2018-04-22T22:53:58.152Z,35.30
2018-04-22T22:56:25.727Z,33.20
2018-04-22T22:58:53.268Z,33.40
2018-04-22T23:01:20.799Z,32.33
2018-04-22T23:03:49.232Z,30.80
2018-04-22T23:06:16.873Z,31.53
2018-04-22T23:08:44.397Z,32.23
2018-04-22T23:11:12.751Z,30.93
2018-04-22T23:13:40.267Z,32.50
2018-04-22T23:16:07.792Z,34.90
2018-04-22T23:18:36.104Z,33.20
2018-04-22T23:21:03.639Z,34.60
2018-04-22T23:23:31.207Z,32.80
2018-04-22T23:25:58.788Z,34.83
2018-04-22T23:28:26.321Z,34.23
2018-04-22T23:30:53.863Z,35.60
2018-04-22T23:33:21.417Z,37.80
2018-04-22T23:35:49.696Z,39.17
2018-04-22T23:38:17.227Z,38.47
2018-04-22T23:40:44.834Z,38.73
2018-04-22T23:43:12.360Z,39.87
2018-04-22T23:45:40.665Z,41.60
2018-04-22T23:48:08.223Z,41.63
2018-04-22T23:50:35.753Z,38.93
2018-04-22T23:53:04.039Z,42.17
2018-04-22T23:55:32.452Z,40.10
2018-04-22T23:57:59.978Z,43.93
